Time;durP1;ratioP1;P1;durP2;ratioP2;P2;SDS_P1;SDS_P2;PMS_P1;PMS_P2;Temp;Humidity;BMP_temperature;BMP_pressure;BME280_temperature;BME280_humidity;BME280_pressure;Samples;Min_cycle;Max_cycle;Signal;HPM_P1;HPM_P2
2021/12/12 00:00:12;;;;;;;7.35;4.18;;;;;;;1.62;86.07;100682.47;5001392;28;20045;-90
2021/12/12 00:02:45;;;;;;;13.75;5.45;;;;;;;1.39;86.30;100681.34;5034370;28;20044;-92
2021/12/12 00:05:20;;;;;;;12.30;6.15;;;;;;;1.26;86.17;100679.66;5032142;28;20033;-91
2021/12/12 00:07:48;;;;;;;7.82;4.00;;;;;;;1.03;86.93;100691.53;5015964;28;20033;-93
2021/12/12 00:10:28;;;;;;;7.47;3.40;;;;;;;1.21;86.68;100687.78;5034322;28;20060;-89
2021/12/12 00:13:08;;;;;;;5.40;2.92;;;;;;;1.37;85.75;100698.06;5015067;28;20049;-92
2021/12/12 00:15:39;;;;;;;5.45;3.38;;;;;;;1.50;85.06;100694.56;5050587;28;20045;-92
2021/12/12 00:18:07;;;;;;;9.85;5.68;;;;;;;1.64;84.82;100698.88;5032311;28;20036;-92
2021/12/12 00:20:33;;;;;;;12.68;7.85;;;;;;;1.54;85.49;100696.03;5003913;28;20018;-91
2021/12/12 00:23:37;;;;;;;12.60;7.35;;;;;;;1.42;86.65;100702.06;5049418;23;20468;-92
2021/12/12 00:26:11;;;;;;;6.78;4.15;;;;;;;1.31;86.41;100701.91;5050172;28;20047;-92
2021/12/12 00:29:19;;;;;;;7.95;3.42;;;;;;;1.50;85.08;100698.94;5021801;28;20056;-92
2021/12/12 00:34:30;;;;;;;6.45;3.25;;;;;;;1.59;84.66;100698.34;2241397;22;20494;-92
2021/12/12 00:41:34;;;;;;;4.78;3.10;;;;;;;1.29;85.86;100695.97;5037219;28;20056;-91
2021/12/12 00:50:31;;;;;;;6.28;2.80;;;;;;;1.34;84.89;100699.09;5037500;22;20047;-92
2021/12/12 00:55:59;;;;;;;6.00;3.07;;;;;;;0.82;86.76;100711.19;4637807;26;20052;-92
2021/12/12 00:58:27;;;;;;;5.55;2.90;;;;;;;1.12;86.85;100714.47;5008341;28;20296;-91
2021/12/12 01:01:20;;;;;;;6.47;3.08;;;;;;;1.31;85.33;100712.34;5013731;28;20053;-91
2021/12/12 01:04:06;;;;;;;9.45;3.50;;;;;;;1.18;86.17;100703.63;4998709;28;20038;-92
2021/12/12 01:06:36;;;;;;;8.23;3.67;;;;;;;1.31;85.85;100703.69;5015723;28;20118;-93
2021/12/12 01:11:54;;;;;;;8.20;3.67;;;;;;;1.22;85.75;100697.28;5009783;28;20398;-93
2021/12/12 01:14:34;;;;;;;6.45;3.45;;;;;;;1.20;85.89;100711.34;4982865;28;20050;-91
2021/12/12 01:17:24;;;;;;;5.55;2.80;;;;;;;0.74;86.61;100718.63;4995591;28;20053;-92
2021/12/12 01:19:59;;;;;;;5.20;2.50;;;;;;;0.85;85.88;100727.47;4978809;28;20034;-92
2021/12/12 01:22:47;;;;;;;4.97;2.70;;;;;;;0.99;85.15;100724.81;5043584;23;20049;-92
2021/12/12 01:25:24;;;;;;;4.82;2.63;;;;;;;1.00;83.67;100717.84;5003437;28;20103;-91
2021/12/12 01:28:11;;;;;;;5.07;2.78;;;;;;;1.05;83.53;100723.63;5014631;28;20041;-90
2021/12/12 01:34:11;;;;;;;7.43;2.88;;;;;;;1.15;84.71;100729.94;5038450;28;20032;-91
2021/12/12 01:37:04;;;;;;;4.18;2.50;;;;;;;1.16;83.65;100726.38;5040229;28;20049;-91
2021/12/12 01:39:45;;;;;;;4.25;2.35;;;;;;;0.95;85.75;100728.56;5022368;28;20068;-91
2021/12/12 01:42:40;;;;;;;5.63;2.80;;;;;;;1.01;86.23;100729.97;5002808;28;20045;-91
2021/12/12 01:45:24;;;;;;;6.90;3.13;;;;;;;1.00;85.05;100741.31;5008084;28;20037;-89
2021/12/12 01:48:01;;;;;;;3.50;2.38;;;;;;;1.08;86.12;100749.53;4998451;28;20041;-92
2021/12/12 01:50:33;;;;;;;4.28;2.22;;;;;;;1.18;85.28;100749.78;4997326;28;20057;-92
2021/12/12 01:53:02;;;;;;;4.63;2.38;;;;;;;1.33;84.48;100754.00;5009821;28;20053;-91
2021/12/12 01:56:06;;;;;;;4.22;2.30;;;;;;;1.41;83.81;100759.59;5004715;28;20077;-92
2021/12/12 01:59:14;;;;;;;4.38;2.67;;;;;;;1.43;83.56;100758.56;5021783;28;20093;-92
2021/12/12 02:01:47;;;;;;;3.72;2.20;;;;;;;1.42;84.07;100751.69;5022758;28;20058;-92
2021/12/12 02:04:20;;;;;;;4.00;2.10;;;;;;;1.41;82.90;100757.81;5025285;28;20469;-91
2021/12/12 02:06:48;;;;;;;3.55;2.20;;;;;;;1.54;83.11;100753.50;5008690;28;20041;-90
2021/12/12 02:09:16;;;;;;;3.83;1.95;;;;;;;1.32;82.86;100758.41;4997902;28;20033;-91
2021/12/12 02:11:46;;;;;;;5.13;2.10;;;;;;;1.27;82.44;100755.25;5009097;28;20078;-90
2021/12/12 02:14:18;;;;;;;3.70;2.25;;;;;;;1.23;83.70;100768.59;5023779;28;20488;-93
2021/12/12 02:17:01;;;;;;;5.57;2.55;;;;;;;1.17;83.71;100769.81;4989827;28;20139;-89
2021/12/12 02:20:01;;;;;;;6.13;2.83;;;;;;;1.29;83.48;100779.50;5005463;28;20042;-90
2021/12/12 02:22:38;;;;;;;4.78;2.15;;;;;;;1.25;83.64;100772.78;5003310;28;20129;-90
2021/12/12 02:36:34;;;;;;;4.93;2.25;;;;;;;1.17;84.19;100790.69;5007532;28;20038;-91
2021/12/12 02:39:05;;;;;;;4.43;2.50;;;;;;;1.08;83.77;100786.06;4990501;28;20033;-90
2021/12/12 02:41:31;;;;;;;3.03;1.85;;;;;;;0.91;83.99;100788.88;4999685;28;20747;-92
2021/12/12 02:44:00;;;;;;;4.88;2.22;;;;;;;0.61;85.67;100790.72;4993858;28;20064;-91
2021/12/12 02:46:36;;;;;;;3.50;2.10;;;;;;;0.57;87.01;100794.44;5011288;28;20029;-90
2021/12/12 02:49:23;;;;;;;7.75;3.03;;;;;;;0.49;88.21;100803.59;5029695;28;20280;-92
2021/12/12 02:51:49;;;;;;;;;;;;;;;0.14;89.40;100799.59;5014736;28;20037;-91
2021/12/12 02:54:16;;;;;;;4.55;2.60;;;;;;;0.28;88.96;100789.22;5016862;28;19932;-91
2021/12/12 02:56:49;;;;;;;4.00;2.67;;;;;;;0.32;90.74;100790.72;5017087;28;20032;-90
2021/12/12 02:59:20;;;;;;;5.43;2.78;;;;;;;0.46;89.53;100798.53;5003305;28;20046;-89
2021/12/12 03:01:54;;;;;;;5.97;2.80;;;;;;;0.46;89.51;100800.31;5027079;28;20129;-90
2021/12/12 03:04:21;;;;;;;5.60;2.78;;;;;;;0.44;89.57;100799.56;4999198;28;20044;-90
2021/12/12 03:06:46;;;;;;;5.45;3.20;;;;;;;0.46;88.09;100803.75;4978983;28;20141;-91
2021/12/12 03:09:29;;;;;;;8.65;3.97;;;;;;;0.43;88.27;100798.72;5001485;28;20124;-91
2021/12/12 03:11:58;;;;;;;8.48;3.55;;;;;;;0.24;90.17;100808.56;5001823;28;20034;-92
2021/12/12 03:14:31;;;;;;;5.53;3.13;;;;;;;0.24;89.71;100815.53;5001032;28;20069;-90
2021/12/12 03:17:20;;;;;;;6.07;3.10;;;;;;;0.01;90.36;100819.47;5020270;28;20034;-93
2021/12/12 03:19:53;;;;;;;5.50;3.50;;;;;;;0.25;89.47;100806.78;5000480;28;20036;-91
2021/12/12 03:22:19;;;;;;;;;;;;;;;0.32;88.85;100822.00;5038743;28;20037;-88
2021/12/12 03:24:48;;;;;;;7.70;3.35;;;;;;;0.27;89.34;100810.97;5038069;28;19916;-90
2021/12/12 03:27:15;;;;;;;5.63;2.80;;;;;;;0.21;89.78;100811.34;5004994;28;20022;-92
2021/12/12 03:29:43;;;;;;;7.88;3.78;;;;;;;0.18;90.46;100824.56;4997433;28;20050;-91
2021/12/12 03:32:14;;;;;;;6.68;3.38;;;;;;;0.15;90.02;100819.53;5019710;28;20491;-91
2021/12/12 03:34:47;;;;;;;5.93;2.72;;;;;;;0.31;90.47;100825.50;5019901;28;20109;-92
2021/12/12 03:37:22;;;;;;;5.18;3.00;;;;;;;0.32;88.94;100827.19;5022513;28;20403;-90
2021/12/12 03:39:52;;;;;;;4.47;2.22;;;;;;;0.50;88.28;100833.91;5026535;28;20044;-93
2021/12/12 03:42:26;;;;;;;6.07;2.75;;;;;;;0.49;86.97;100829.66;5010912;28;20069;-93
2021/12/12 03:44:56;;;;;;;5.85;2.90;;;;;;;0.41;87.78;100826.66;5028187;28;20034;-92
2021/12/12 03:47:28;;;;;;;5.30;3.00;;;;;;;0.42;87.54;100820.53;5007756;28;20087;-91
2021/12/12 03:50:03;;;;;;;4.32;2.60;;;;;;;0.45;88.61;100845.56;5005970;28;20033;-93
2021/12/12 03:52:44;;;;;;;6.45;3.70;;;;;;;-0.04;90.10;100850.16;5001619;28;20050;-93
2021/12/12 03:55:15;;;;;;;6.55;2.90;;;;;;;-0.30;89.99;100849.00;4991324;28;20038;-92
2021/12/12 03:57:47;;;;;;;3.20;2.45;;;;;;;-0.69;92.43;100859.84;4995257;28;20050;-91
2021/12/12 04:01:04;;;;;;;5.55;3.00;;;;;;;-0.44;92.56;100851.56;5030256;28;20034;-91
2021/12/12 04:03:30;;;;;;;5.03;2.67;;;;;;;-0.28;90.81;100857.59;4992088;28;20097;-90
2021/12/12 04:06:00;;;;;;;5.03;3.00;;;;;;;-0.23;90.84;100860.75;5008959;28;20049;-91
2021/12/12 04:08:30;;;;;;;6.05;2.47;;;;;;;-0.06;90.55;100868.47;4993030;28;20030;-92
2021/12/12 04:11:00;;;;;;;4.35;2.40;;;;;;;0.03;90.87;100871.50;4995119;28;20037;-92
2021/12/12 04:13:29;;;;;;;4.22;2.50;;;;;;;0.05;89.22;100865.28;4990866;28;20042;-91
2021/12/12 04:15:58;;;;;;;5.55;2.55;;;;;;;0.13;89.01;100873.50;5005121;28;20179;-91
2021/12/12 04:18:28;;;;;;;;;;;;;;;-0.04;89.25;100866.66;5008613;28;20478;-91
2021/12/12 04:21:00;;;;;;;6.40;2.92;;;;;;;-0.58;91.89;100875.72;5015737;28;19928;-93
2021/12/12 04:23:30;;;;;;;5.28;3.30;;;;;;;-0.62;92.30;100869.00;5052103;23;20037;-92
2021/12/12 04:26:32;;;;;;;4.50;2.60;;;;;;;-0.39;92.73;100872.94;5054011;28;20025;-92
2021/12/12 04:29:42;;;;;;;5.40;3.17;;;;;;;-0.45;92.97;100870.69;5053433;28;20049;-92
2021/12/12 04:40:20;;;;;;;6.80;3.45;;;;;;;-0.27;90.80;100894.88;5030424;28;20313;-92
2021/12/12 04:42:55;;;;;;;5.15;2.72;;;;;;;-0.07;91.08;100892.84;5032580;28;20018;-92
2021/12/12 04:51:11;;;;;;;9.07;2.92;;;;;;;-0.04;89.98;100902.28;4987565;28;20042;-90
2021/12/12 04:53:56;;;;;;;7.10;2.47;;;;;;;0.02;90.36;100907.13;4977481;28;20418;-92
2021/12/12 04:56:28;;;;;;;5.00;3.05;;;;;;;0.00;90.36;100915.03;4981502;28;20031;-92
2021/12/12 04:59:10;;;;;;;6.40;2.40;;;;;;;0.08;89.79;100917.22;4983459;28;20039;-92
2021/12/12 05:01:42;;;;;;;;;;;;;;;0.02;90.34;100927.13;4984476;28;20043;-90
2021/12/12 05:04:19;;;;;;;4.85;2.58;;;;;;;-0.09;89.82;100922.50;4972339;28;19918;-90
2021/12/12 05:07:15;;;;;;;9.50;3.05;;;;;;;-0.13;90.83;100926.19;4992842;28;20499;-92
2021/12/12 05:09:52;;;;;;;3.65;2.53;;;;;;;-0.03;90.99;100929.97;4991455;28;20039;-91
2021/12/12 05:12:23;;;;;;;3.75;2.50;;;;;;;0.09;90.00;100926.72;4992797;28;20035;-91
2021/12/12 05:14:57;;;;;;;5.70;2.53;;;;;;;0.17;89.76;100934.91;4988213;28;20039;-93
2021/12/12 05:21:01;;;;;;;5.22;2.47;;;;;;;0.30;89.02;100937.69;5001026;28;20053;-91
2021/12/12 05:23:29;;;;;;;3.40;2.15;;;;;;;0.17;88.72;100937.53;5000338;28;20019;-90
2021/12/12 05:25:59;;;;;;;5.38;2.70;;;;;;;0.20;89.97;100947.78;4999611;28;20038;-91
2021/12/12 05:28:47;;;;;;;4.03;2.60;;;;;;;0.04;89.45;100954.78;4987830;28;20424;-90
2021/12/12 05:31:17;;;;;;;7.18;3.53;;;;;;;-0.79;90.78;100954.94;4951278;28;20035;-91
2021/12/12 05:33:43;;;;;;;9.82;4.30;;;;;;;-0.83;91.46;100958.59;4982604;28;20041;-89
2021/12/12 05:36:15;;;;;;;9.25;4.38;;;;;;;-0.94;91.34;100952.28;4983097;28;20093;-90
2021/12/12 05:38:42;;;;;;;6.63;3.00;;;;;;;-1.03;92.62;100958.81;4984862;28;20407;-90
2021/12/12 05:41:08;;;;;;;8.20;3.92;;;;;;;-1.13;92.52;100968.00;4980851;28;20110;-90
2021/12/12 05:43:37;;;;;;;10.82;4.68;;;;;;;-1.06;92.26;100958.94;4985739;28;20061;-91
2021/12/12 05:46:18;;;;;;;9.30;4.25;;;;;;;-0.86;92.93;100969.16;4984819;28;20046;-87
2021/12/12 05:48:45;;;;;;;5.60;3.80;;;;;;;-0.71;91.26;100968.38;4989699;28;20058;-89
2021/12/12 05:51:16;;;;;;;5.10;3.08;;;;;;;-0.64;92.11;100964.56;4976275;28;20539;-90
2021/12/12 05:53:43;;;;;;;5.28;3.28;;;;;;;-0.46;91.04;100972.31;5029801;23;20056;-91
2021/12/12 05:56:09;;;;;;;5.03;2.88;;;;;;;-0.38;90.65;100970.97;5044214;28;20072;-89
2021/12/12 05:58:35;;;;;;;4.72;2.80;;;;;;;-0.37;90.67;100982.25;5031388;28;20030;-91
2021/12/12 06:01:06;;;;;;;4.70;2.92;;;;;;;-0.34;91.05;100987.28;5027034;28;20101;-87
2021/12/12 06:03:39;;;;;;;4.00;2.88;;;;;;;-0.37;90.82;100993.50;5040294;28;20470;-89
2021/12/12 06:06:26;;;;;;;5.75;2.70;;;;;;;-0.24;90.58;100988.47;5011012;28;20041;-93
2021/12/12 06:08:56;;;;;;;5.88;3.03;;;;;;;-0.09;89.84;100998.06;5027671;28;20089;-87
2021/12/12 06:11:27;;;;;;;8.45;3.67;;;;;;;-0.17;90.17;101000.25;5057392;28;20061;-87
2021/12/12 06:13:55;;;;;;;7.35;3.60;;;;;;;-0.14;89.43;101005.28;5038565;28;20676;-88
2021/12/12 06:16:21;;;;;;;8.57;4.72;;;;;;;-0.08;88.63;101021.44;5046537;28;20046;-85
2021/12/12 06:19:00;;;;;;;6.28;3.92;;;;;;;0.02;87.86;101021.78;5049759;28;20026;-89
2021/12/12 06:21:31;;;;;;;7.95;3.50;;;;;;;0.09;87.45;101033.53;5024640;28;20101;-89
2021/12/12 06:23:59;;;;;;;4.97;2.97;;;;;;;0.00;88.23;101036.66;5042452;23;20053;-89
2021/12/12 06:29:19;;;;;;;5.45;2.97;;;;;;;0.19;88.90;101045.16;5016287;28;20046;-90
2021/12/12 06:31:50;;;;;;;5.40;2.85;;;;;;;0.05;87.99;101045.06;4996622;28;20054;-91
2021/12/12 06:34:19;;;;;;;5.40;2.00;;;;;;;-0.21;89.37;101050.81;5003515;28;20038;-90
2021/12/12 06:36:49;;;;;;;5.22;2.42;;;;;;;-0.29;89.22;101058.16;4987236;28;20605;-92
2021/12/12 06:39:27;;;;;;;3.90;1.92;;;;;;;-0.24;88.30;101061.41;4995421;28;20057;-91
2021/12/12 06:41:54;;;;;;;8.27;2.10;;;;;;;-0.42;88.33;101067.53;4952191;28;20046;-91
2021/12/12 06:44:20;;;;;;;3.50;2.30;;;;;;;-0.56;90.36;101076.91;4984837;28;20038;-88
2021/12/12 06:46:46;;;;;;;3.60;2.20;;;;;;;-0.52;88.92;101088.84;4965435;28;20042;-87
2021/12/12 06:49:14;;;;;;;5.07;2.40;;;;;;;-0.48;88.99;101086.94;4984669;28;20023;-88
2021/12/12 06:51:54;;;;;;;2.65;1.92;;;;;;;-0.58;89.68;101088.31;4987198;28;20391;-89
2021/12/12 06:54:24;;;;;;;4.05;2.40;;;;;;;-0.39;88.16;101081.25;4970466;28;20031;-89
2021/12/12 06:56:51;;;;;;;4.72;2.47;;;;;;;-0.16;87.99;101085.25;4985260;28;20034;-90
2021/12/12 06:59:25;;;;;;;4.15;2.10;;;;;;;0.22;86.37;101086.69;4971550;28;20498;-89
2021/12/12 07:01:54;;;;;;;3.35;2.08;;;;;;;0.52;84.29;101099.81;4952849;28;20030;-92
2021/12/12 07:04:37;;;;;;;4.55;2.03;;;;;;;0.37;86.15;101100.63;4984466;28;20038;-88
2021/12/12 07:07:05;;;;;;;13.23;3.35;;;;;;;0.28;85.87;101106.34;5001493;28;20138;-90
2021/12/12 07:09:38;;;;;;;4.15;2.83;;;;;;;0.04;86.42;101111.09;4970111;28;20125;-90
2021/12/12 07:12:15;;;;;;;6.30;3.50;;;;;;;0.40;87.67;101111.75;4983313;28;20058;-90
2021/12/12 07:14:43;;;;;;;6.03;3.95;;;;;;;0.36;86.64;101115.47;4973314;28;20054;-88
2021/12/12 07:17:10;;;;;;;5.80;3.28;;;;;;;1.00;82.40;101115.34;4987645;28;20042;-90
2021/12/12 07:19:40;;;;;;;7.05;2.85;;;;;;;0.77;81.52;101120.16;4964990;28;20066;-89
2021/12/12 07:22:06;;;;;;;5.00;2.67;;;;;;;0.81;80.89;101117.31;4948753;28;20042;-91
2021/12/12 07:24:35;;;;;;;4.70;2.83;;;;;;;1.21;78.80;101115.88;4984374;28;20113;-87
2021/12/12 07:27:02;;;;;;;6.75;3.60;;;;;;;1.84;76.57;101107.81;4977029;28;20046;-92
2021/12/12 07:29:29;;;;;;;7.38;3.28;;;;;;;2.00;75.79;101113.78;4972746;28;20050;-88
2021/12/12 07:32:14;;;;;;;10.43;5.63;;;;;;;2.97;71.71;101123.34;4991109;28;20058;-90
2021/12/12 07:34:40;;;;;;;14.35;6.05;;;;;;;3.29;69.77;101132.56;5005088;28;20031;-88
2021/12/12 07:37:08;;;;;;;11.57;5.60;;;;;;;3.30;69.16;101141.25;4988406;28;20038;-88
2021/12/12 07:39:37;;;;;;;8.85;4.95;;;;;;;2.93;70.01;101143.66;4981720;28;20129;-87
2021/12/12 07:42:04;;;;;;;9.40;5.18;;;;;;;2.99;69.82;101139.78;4998289;28;20479;-89
2021/12/12 07:44:35;;;;;;;10.00;5.72;;;;;;;3.39;68.81;101148.50;5005410;28;20042;-91
2021/12/12 07:47:13;;;;;;;15.75;5.53;;;;;;;3.93;67.71;101139.59;5008995;28;20375;-89
2021/12/12 07:49:43;;;;;;;8.23;4.78;;;;;;;4.00;67.87;101155.75;4998281;28;20036;-90
2021/12/12 07:52:15;;;;;;;6.93;4.15;;;;;;;3.94;67.03;101151.75;4972401;28;20058;-90
2021/12/12 07:54:44;;;;;;;7.25;4.10;;;;;;;3.85;66.20;101156.75;4980014;28;20506;-89
2021/12/12 07:57:12;;;;;;;5.80;3.35;;;;;;;2.97;67.76;101160.00;5000725;28;20076;-88
2021/12/12 07:59:50;;;;;;;6.30;3.28;;;;;;;2.58;70.43;101158.13;4973737;28;20045;-89
2021/12/12 08:02:20;;;;;;;7.78;3.90;;;;;;;2.55;69.79;101163.56;4996779;28;20022;-91
2021/12/12 08:04:47;;;;;;;7.88;4.60;;;;;;;2.22;71.66;101163.00;5002054;28;20029;-88
2021/12/12 08:07:19;;;;;;;6.10;4.10;;;;;;;2.64;71.37;101169.97;5006779;28;20106;-88
2021/12/12 08:09:51;;;;;;;7.72;4.10;;;;;;;2.65;70.80;101171.69;5016920;28;20034;-91
2021/12/12 08:12:25;;;;;;;7.75;4.50;;;;;;;2.57;71.23;101175.59;4997300;28;20094;-90
2021/12/12 08:14:54;;;;;;;;;;;;;;;2.50;71.13;101174.31;5017015;28;20049;-88
2021/12/12 08:20:05;;;;;;;9.13;4.50;;;;;;;2.34;72.14;101176.19;4940399;26;20078;-90
2021/12/12 08:22:31;;;;;;;6.97;4.10;;;;;;;2.69;71.31;101179.22;4954842;28;20043;-88
2021/12/12 08:25:06;;;;;;;7.97;4.30;;;;;;;2.53;71.37;101179.34;5002590;28;20042;-91
2021/12/12 08:27:32;;;;;;;7.95;4.15;;;;;;;2.38;72.67;101180.28;4989053;28;20034;-91
2021/12/12 08:29:59;;;;;;;9.40;3.65;;;;;;;2.78;73.62;101190.91;4979836;28;20538;-89
2021/12/12 08:32:32;;;;;;;9.43;4.30;;;;;;;2.98;72.04;101180.03;4978872;28;20058;-91
2021/12/12 08:34:58;;;;;;;10.15;4.68;;;;;;;2.94;71.54;101187.22;4999258;28;20038;-89
2021/12/12 08:37:29;;;;;;;10.95;4.80;;;;;;;3.30;69.87;101189.25;4981928;28;20117;-90
2021/12/12 08:40:00;;;;;;;11.82;4.95;;;;;;;3.18;70.00;101192.69;4997670;28;20045;-92
2021/12/12 08:42:27;;;;;;;15.45;4.15;;;;;;;3.45;70.13;101200.50;4981687;28;20062;-90
2021/12/12 08:45:10;;;;;;;8.43;4.85;;;;;;;3.33;70.55;101204.78;5001138;28;20052;-90
2021/12/12 08:47:36;;;;;;;12.05;4.85;;;;;;;3.28;70.14;101208.66;4965725;28;20065;-91
2021/12/12 08:50:06;;;;;;;9.63;4.68;;;;;;;3.53;70.13;101211.34;4964111;28;20121;-92
2021/12/12 08:52:37;;;;;;;10.38;4.70;;;;;;;3.49;69.92;101208.06;4971586;28;20046;-90
2021/12/12 08:55:19;;;;;;;9.85;4.72;;;;;;;3.63;69.66;101212.41;4999426;28;20046;-90
2021/12/12 09:01:25;;;;;;;7.53;3.95;;;;;;;3.92;67.94;101227.06;4940211;29;20095;-91
2021/12/12 09:03:58;;;;;;;5.53;3.00;;;;;;;4.03;67.70;101229.81;4946829;29;20039;-90
2021/12/12 09:06:30;;;;;;;6.13;3.47;;;;;;;4.14;66.48;101222.03;4959089;29;20084;-88
2021/12/12 09:09:43;;;;;;;6.32;3.50;;;;;;;4.18;67.41;101233.16;5028107;23;20077;-89
2021/12/12 09:12:36;;;;;;;6.82;3.80;;;;;;;3.90;67.21;101235.97;5154365;22;20041;-89
2021/12/12 09:15:26;;;;;;;7.10;3.70;;;;;;;4.20;67.69;101241.78;5007425;28;20068;-88
2021/12/12 09:18:25;;;;;;;5.90;3.53;;;;;;;4.41;67.01;101229.81;5033954;28;20046;-89
2021/12/12 09:21:42;;;;;;;;;;;;;;;;;;;;;
2021/12/12 09:24:25;;;;;;;7.45;3.72;;;;;;;4.38;67.18;101237.03;5018087;23;20470;-90
2021/12/12 09:26:57;;;;;;;;;;;;;;;4.45;67.07;101239.16;4983827;28;20042;-91
2021/12/12 09:29:47;;;;;;;8.00;3.88;;;;;;;4.58;66.90;101231.28;4985754;28;20382;-91
2021/12/12 09:32:39;;;;;;;9.15;4.55;;;;;;;4.54;66.78;101235.88;4988157;28;20119;-90
2021/12/12 09:39:33;;;;;;;11.63;4.25;;;;;;;4.96;65.87;101257.47;5363090;22;20133;-91
2021/12/12 09:42:49;;;;;;;6.20;3.55;;;;;;;4.82;65.94;101265.47;4988065;28;20706;-91
2021/12/12 09:45:47;;;;;;;6.50;3.50;;;;;;;4.93;66.24;101273.47;4963327;28;20046;-88
2021/12/12 09:52:26;;;;;;;8.98;4.18;;;;;;;5.20;64.83;101267.06;5052115;22;20487;-88
2021/12/12 09:55:01;;;;;;;10.38;4.72;;;;;;;5.22;65.09;101269.59;5051791;28;20037;-86
2021/12/12 09:58:10;;;;;;;6.60;3.60;;;;;;;5.26;66.03;101259.72;5042013;28;20068;-86
2021/12/12 10:01:17;;;;;;;7.63;3.67;;;;;;;5.41;65.45;101264.69;5025058;28;20120;-91
2021/12/12 10:04:08;;;;;;;9.25;5.22;;;;;;;5.28;68.19;101266.53;5012315;28;20080;-90
2021/12/12 10:06:52;;;;;;;8.73;5.03;;;;;;;5.29;68.62;101260.34;5012155;28;20037;-87
2021/12/12 10:09:29;;;;;;;9.25;5.28;;;;;;;5.36;69.18;101260.75;5032093;28;20037;-91
2021/12/12 10:12:04;;;;;;;12.07;5.20;;;;;;;5.46;70.10;101259.97;5018820;28;20050;-86
2021/12/12 10:14:53;;;;;;;10.73;6.03;;;;;;;5.15;71.88;101255.22;4987208;28;20049;-84
2021/12/12 10:17:40;;;;;;;16.48;6.15;;;;;;;4.94;72.54;101254.13;5029478;28;20030;-87
2021/12/12 10:20:42;;;;;;;19.95;7.10;;;;;;;4.42;74.36;101263.00;5039317;28;20053;-87
2021/12/12 10:23:35;;;;;;;15.15;6.70;;;;;;;4.23;75.14;101266.97;5025185;28;20040;-90
2021/12/12 10:26:47;;;;;;;14.00;6.38;;;;;;;4.16;74.68;101269.16;5028754;28;20055;-90
2021/12/12 10:29:26;;;;;;;14.23;6.32;;;;;;;4.15;73.33;101280.59;5011796;28;20044;-90
2021/12/12 10:32:07;;;;;;;13.60;5.75;;;;;;;4.24;74.73;101273.91;5011021;28;20048;-88
2021/12/12 10:34:41;;;;;;;12.93;5.30;;;;;;;4.21;74.56;101268.88;5008831;28;20041;-89
2021/12/12 10:37:32;;;;;;;16.15;6.65;;;;;;;3.99;74.80;101270.28;5069697;22;20049;-90
2021/12/12 10:40:09;;;;;;;9.70;5.28;;;;;;;4.11;77.33;101258.13;5021239;28;20056;-89
2021/12/12 10:42:49;;;;;;;10.27;5.40;;;;;;;4.33;77.21;101247.03;5046244;28;20120;-90
2021/12/12 10:45:23;;;;;;;16.30;6.20;;;;;;;4.39;74.81;101249.22;5013548;28;20072;-90
2021/12/12 10:48:05;;;;;;;13.77;5.43;;;;;;;4.29;75.14;101241.16;5020600;28;20113;-87
2021/12/12 10:51:00;;;;;;;15.80;6.63;;;;;;;4.30;74.21;101249.88;5021947;28;20045;-91
2021/12/12 10:53:41;;;;;;;36.72;10.02;;;;;;;4.62;80.99;101244.09;5024094;28;20048;-90
2021/12/12 10:56:24;;;;;;;18.33;5.60;;;;;;;4.32;73.49;101251.44;5044279;28;20037;-88
2021/12/12 10:59:10;;;;;;;12.38;5.30;;;;;;;4.23;73.92;101253.84;5012277;28;20410;-91
2021/12/12 11:01:46;;;;;;;13.80;6.25;;;;;;;4.62;74.79;101254.59;5027400;28;20029;-90
2021/12/12 11:04:18;;;;;;;10.55;5.30;;;;;;;4.53;72.19;101249.97;5024411;28;20049;-90
2021/12/12 11:07:04;;;;;;;21.13;6.70;;;;;;;4.60;71.66;101247.78;5024856;28;20041;-89
2021/12/12 11:09:39;;;;;;;12.65;5.93;;;;;;;4.47;69.79;101263.53;5027061;28;20042;-84
2021/12/12 11:12:26;;;;;;;11.77;5.90;;;;;;;4.48;70.06;101262.56;5019911;28;20133;-86
2021/12/12 11:15:07;;;;;;;12.48;5.53;;;;;;;4.84;71.66;101255.72;5019580;28;20040;-86
2021/12/12 11:17:41;;;;;;;15.68;6.22;;;;;;;5.04;70.02;101261.22;5015969;28;20483;-86
2021/12/12 11:20:37;;;;;;;16.92;5.53;;;;;;;5.09;70.89;101255.66;5014914;28;20025;-87
2021/12/12 11:23:20;;;;;;;12.32;6.13;;;;;;;5.39;75.35;101253.47;4994299;28;20081;-83
2021/12/12 11:25:52;;;;;;;8.48;5.28;;;;;;;5.44;74.25;101248.69;5010665;28;20046;-86
2021/12/12 11:28:27;;;;;;;11.68;6.20;;;;;;;5.46;72.02;101257.34;5022685;28;20033;-85
2021/12/12 11:31:18;;;;;;;13.15;5.68;;;;;;;5.52;71.41;101245.53;5017850;28;20120;-85
2021/12/12 11:33:47;;;;;;;14.55;5.72;;;;;;;5.57;71.66;101249.47;5034615;28;20495;-84
2021/12/12 11:36:18;;;;;;;12.48;5.65;;;;;;;5.59;70.55;101246.75;5033670;28;20037;-84
2021/12/12 11:39:21;;;;;;;12.35;6.65;;;;;;;5.92;75.28;101251.34;5019534;28;20041;-84
2021/12/12 11:41:56;;;;;;;;;;;;;;;5.64;68.83;101250.72;5039195;28;20036;-89
2021/12/12 11:45:14;;;;;;;22.27;7.72;;;;;;;5.39;67.70;101245.59;5021214;28;19917;-85
2021/12/12 11:48:01;;;;;;;12.30;4.97;;;;;;;5.28;67.23;101242.88;4939490;29;20056;-87
2021/12/12 11:51:05;;;;;;;11.95;6.25;;;;;;;5.31;67.31;101253.16;4927744;29;20059;-89
2021/12/12 11:53:55;;;;;;;10.18;5.70;;;;;;;5.14;66.76;101251.75;4939410;29;20048;-87
2021/12/12 11:56:45;;;;;;;14.50;6.38;;;;;;;5.10;68.78;101249.47;4962632;22;20068;-87
2021/12/12 11:59:30;;;;;;;16.92;6.10;;;;;;;4.91;69.21;101247.28;5039081;28;20054;-88
2021/12/12 12:01:57;;;;;;;11.77;6.55;;;;;;;4.92;72.45;101250.75;5057412;28;20026;-89
2021/12/12 12:04:35;;;;;;;27.65;6.80;;;;;;;4.80;70.95;101247.22;5047803;28;20051;-90
2021/12/12 12:07:13;;;;;;;15.35;7.85;;;;;;;4.71;73.32;101239.16;5033461;28;20052;-88
2021/12/12 12:09:53;;;;;;;21.30;8.30;;;;;;;4.73;73.04;101245.97;5051746;28;20026;-89
2021/12/12 12:12:46;;;;;;;17.48;8.07;;;;;;;4.75;73.16;101243.22;5049148;28;20033;-85
2021/12/12 12:15:11;;;;;;;;;;;;;;;4.79;74.29;101249.94;5021657;28;20033;-89
2021/12/12 12:17:49;;;;;;;19.17;8.48;;;;;;;4.91;76.24;101241.19;5025713;28;19921;-88
2021/12/12 12:20:42;;;;;;;22.33;9.32;;;;;;;4.78;74.69;101240.38;5046218;28;20144;-91
2021/12/12 12:23:30;;;;;;;;;;;;;;;;;;;;;
2021/12/12 12:28:57;;;;;;;23.10;8.45;;;;;;;4.31;77.51;101241.06;5031892;28;20041;-86
2021/12/12 12:31:36;;;;;;;16.95;8.45;;;;;;;4.30;78.41;101236.75;5032095;28;20364;-85
2021/12/12 12:34:39;;;;;;;22.13;7.82;;;;;;;4.20;80.14;101249.66;5032054;28;20037;-84
2021/12/12 12:37:48;;;;;;;16.63;7.57;;;;;;;4.28;82.28;101244.72;5029623;28;20025;-87
2021/12/12 12:40:41;;;;;;;17.80;9.48;;;;;;;4.35;82.03;101251.22;5036077;28;20062;-86
2021/12/12 12:43:51;;;;;;;15.48;9.05;;;;;;;4.13;79.06;101240.50;5023336;28;20037;-86
2021/12/12 12:46:54;;;;;;;21.98;10.32;;;;;;;4.14;80.12;101244.81;5015686;28;20121;-89
2021/12/12 12:50:07;;;;;;;23.50;11.30;;;;;;;4.11;79.63;101247.63;5028559;28;20124;-87
2021/12/12 12:52:56;;;;;;;19.52;9.65;;;;;;;4.17;79.33;101244.63;5021233;28;20191;-88
2021/12/12 12:55:38;;;;;;;21.15;9.65;;;;;;;4.57;83.89;101230.41;5038934;28;20053;-86
2021/12/12 12:58:23;;;;;;;17.80;9.82;;;;;;;4.55;81.41;101237.56;5039259;28;20036;-87
2021/12/12 13:01:02;;;;;;;18.77;9.65;;;;;;;4.61;79.23;101242.41;4987916;28;20042;-87
2021/12/12 13:03:35;;;;;;;26.65;10.50;;;;;;;4.65;81.20;101243.88;5041095;28;20028;-91
2021/12/12 13:06:01;;;;;;;21.20;10.30;;;;;;;4.79;82.59;101242.91;5048187;28;20100;-91
2021/12/12 13:08:33;;;;;;;23.67;11.07;;;;;;;4.52;78.45;101245.66;5029102;28;20084;-89
2021/12/12 13:11:07;;;;;;;19.35;11.48;;;;;;;4.43;80.92;101250.72;5044367;28;20505;-89
2021/12/12 13:14:04;;;;;;;29.38;12.07;;;;;;;4.19;80.67;101250.59;5033507;28;20138;-89
2021/12/12 13:16:43;;;;;;;23.10;12.90;;;;;;;4.19;82.50;101245.34;5024090;28;20046;-89
2021/12/12 13:19:37;;;;;;;22.90;12.23;;;;;;;4.45;84.56;101246.19;5032513;28;20037;-85
2021/12/12 13:22:32;;;;;;;20.48;11.45;;;;;;;4.20;81.51;101247.03;5028097;28;20049;-91
2021/12/12 13:25:08;;;;;;;25.75;11.68;;;;;;;4.29;85.33;101230.66;4983430;28;20523;-84
2021/12/12 13:28:19;;;;;;;22.80;12.65;;;;;;;4.31;82.80;101238.44;5011658;28;20038;-88
2021/12/12 13:31:04;;;;;;;21.45;11.25;;;;;;;4.18;79.84;101244.50;5034149;28;20045;-88
2021/12/12 13:33:32;;;;;;;25.63;12.68;;;;;;;4.16;81.25;101237.69;5023384;28;20263;-85
2021/12/12 13:36:00;;;;;;;23.70;12.35;;;;;;;4.27;81.26;101234.34;5030438;28;20042;-90